Time;durP1;ratioP1;P1;durP2;ratioP2;P2;SDS_P1;SDS_P2;PMS_P1;PMS_P2;Temp;Humidity;BMP_temperature;BMP_pressure;BME280_temperature;BME280_humidity;BME280_pressure;Samples;Min_cycle;Max_cycle;Signal;HPM_P1;HPM_P2
2021/08/19 00:00:57;;;;;;;8.20;6.20;;;18.30;99.90;;;;;;4158985;28;20037;-70
2021/08/19 00:02:58;;;;;;;8.02;5.32;;;18.30;99.90;;;;;;4165470;28;20512;-69
2021/08/19 00:04:59;;;;;;;9.90;5.90;;;18.40;99.90;;;;;;4179457;28;20052;-69
2021/08/19 00:06:59;;;;;;;7.60;5.43;;;18.40;99.90;;;;;;4177280;28;20123;-70
2021/08/19 00:09:00;;;;;;;12.25;6.53;;;18.40;99.90;;;;;;4165742;28;20029;-70
2021/08/19 00:11:01;;;;;;;10.43;6.70;;;18.40;99.90;;;;;;4164902;28;20037;-70
2021/08/19 00:13:01;;;;;;;8.88;5.82;;;18.30;99.90;;;;;;4165346;28;20378;-69
2021/08/19 00:15:02;;;;;;;9.85;6.03;;;18.40;99.90;;;;;;4176260;28;20030;-69
2021/08/19 00:17:05;;;;;;;10.48;6.00;;;18.30;99.90;;;;;;4177851;28;20048;-70
2021/08/19 00:19:05;;;;;;;7.78;5.90;;;18.40;99.90;;;;;;4160677;28;20092;-70
2021/08/19 00:21:08;;;;;;;11.30;6.75;;;18.40;99.90;;;;;;4175145;28;20038;-70
2021/08/19 00:23:09;;;;;;;;;;;18.40;99.90;;;;;;4177877;28;20041;-69
2021/08/19 00:25:10;;;;;;;8.20;5.82;;;18.40;99.90;;;;;;4164128;28;19994;-69
2021/08/19 00:27:10;;;;;;;13.57;7.45;;;18.40;99.90;;;;;;4166124;28;20072;-69
2021/08/19 00:29:11;;;;;;;9.68;6.55;;;18.30;99.90;;;;;;4165385;28;20041;-69
2021/08/19 00:31:12;;;;;;;9.40;6.45;;;18.40;99.90;;;;;;4165732;28;20072;-70
2021/08/19 00:33:12;;;;;;;7.45;5.68;;;18.40;99.90;;;;;;4173863;28;20055;-69
2021/08/19 00:35:13;;;;;;;10.85;6.95;;;18.40;99.90;;;;;;4160339;28;20036;-69
2021/08/19 00:37:13;;;;;;;8.57;6.00;;;18.40;99.90;;;;;;4165812;28;20040;-70
2021/08/19 00:39:14;;;;;;;9.85;5.88;;;18.40;99.90;;;;;;4137578;28;20080;-70
2021/08/19 00:41:15;;;;;;;12.15;7.32;;;18.40;99.90;;;;;;4165436;28;20046;-69
2021/08/19 00:43:15;;;;;;;9.15;6.18;;;18.40;99.90;;;;;;4165544;28;20124;-69
2021/08/19 00:45:16;;;;;;;8.65;5.70;;;18.40;99.90;;;;;;4163670;28;20117;-70
2021/08/19 00:47:17;;;;;;;8.27;6.05;;;18.40;99.90;;;;;;4165570;28;20049;-69
2021/08/19 00:49:17;;;;;;;10.88;6.15;;;18.40;99.90;;;;;;4158676;28;20077;-70
2021/08/19 00:51:18;;;;;;;10.25;6.40;;;18.40;99.90;;;;;;4164594;28;20040;-70
2021/08/19 00:53:19;;;;;;;8.45;6.18;;;18.40;99.90;;;;;;4164872;28;20033;-70
2021/08/19 00:55:20;;;;;;;8.57;6.35;;;18.40;99.90;;;;;;4161639;28;20378;-69
2021/08/19 00:57:21;;;;;;;11.05;6.72;;;18.40;99.90;;;;;;4174709;28;20052;-70
2021/08/19 00:59:23;;;;;;;11.23;6.35;;;18.40;99.90;;;;;;4158526;28;20426;-69
2021/08/19 01:01:24;;;;;;;8.98;6.32;;;18.40;99.90;;;;;;4161939;28;20048;-69
2021/08/19 01:03:25;;;;;;;10.30;6.38;;;18.40;99.90;;;;;;4166694;28;20598;-69
2021/08/19 01:05:30;;;;;;;9.77;5.50;;;18.40;99.90;;;;;;4171723;28;20037;-70
2021/08/19 01:07:31;;;;;;;8.82;6.38;;;18.40;99.90;;;;;;4175940;28;20124;-69
2021/08/19 01:09:33;;;;;;;10.57;5.55;;;18.40;99.90;;;;;;4154124;28;20037;-69
2021/08/19 01:11:35;;;;;;;7.88;5.20;;;18.40;99.90;;;;;;4174239;28;20051;-69
2021/08/19 01:13:36;;;;;;;11.32;6.30;;;18.40;99.90;;;;;;4177162;28;20087;-69
2021/08/19 01:15:37;;;;;;;10.27;6.38;;;18.40;99.90;;;;;;4163110;28;20136;-70
2021/08/19 01:17:38;;;;;;;10.68;6.15;;;18.40;99.90;;;;;;4170964;28;20033;-70
2021/08/19 01:19:39;;;;;;;9.45;5.80;;;18.40;99.90;;;;;;4170958;28;20573;-69
2021/08/19 01:21:40;;;;;;;9.02;6.25;;;18.40;99.90;;;;;;4160816;28;20041;-69
2021/08/19 01:23:41;;;;;;;9.13;5.95;;;18.50;99.90;;;;;;4170807;28;20501;-69
2021/08/19 01:25:42;;;;;;;14.18;7.50;;;18.50;99.90;;;;;;4149080;28;20034;-69
2021/08/19 01:27:43;;;;;;;11.65;6.65;;;18.40;99.90;;;;;;4156290;28;20635;-69
2021/08/19 01:29:45;;;;;;;11.15;6.15;;;18.40;99.90;;;;;;4170324;28;20037;-69
2021/08/19 01:32:02;;;;;;;;;;;18.40;99.90;;;;;;4154644;28;20816;-69
2021/08/19 01:34:03;;;;;;;9.07;5.93;;;18.40;99.90;;;;;;4171939;28;19913;-69
2021/08/19 01:36:03;;;;;;;7.82;5.63;;;18.40;99.90;;;;;;4159941;28;20040;-69
2021/08/19 01:38:04;;;;;;;11.00;5.95;;;18.40;99.90;;;;;;4163773;28;20110;-70
2021/08/19 01:40:05;;;;;;;8.43;5.50;;;18.50;99.90;;;;;;4168196;28;20045;-69
2021/08/19 01:42:06;;;;;;;11.63;6.35;;;18.50;99.90;;;;;;4162006;28;20048;-69
2021/08/19 01:44:06;;;;;;;9.70;5.70;;;18.50;99.90;;;;;;4161541;28;20049;-70
2021/08/19 01:46:10;;;;;;;9.43;5.68;;;18.50;99.90;;;;;;4159204;28;20063;-69
2021/08/19 01:48:12;;;;;;;7.88;5.45;;;18.50;99.90;;;;;;4161778;28;20502;-69
2021/08/19 01:50:13;;;;;;;8.02;5.32;;;18.40;99.90;;;;;;4163050;28;20037;-69
2021/08/19 01:52:13;;;;;;;12.45;6.00;;;18.50;99.90;;;;;;4161997;28;20033;-69
2021/08/19 01:54:14;;;;;;;9.63;6.05;;;18.50;99.90;;;;;;4159278;28;20037;-69
2021/08/19 01:56:22;;;;;;;9.25;5.50;;;18.50;99.90;;;;;;4160817;28;20428;-69
2021/08/19 01:58:22;;;;;;;7.80;4.95;;;18.50;99.90;;;;;;4143905;28;20708;-70
2021/08/19 02:00:23;;;;;;;10.10;6.82;;;18.50;99.90;;;;;;4153937;28;20083;-70
2021/08/19 02:02:23;;;;;;;13.10;6.95;;;18.50;99.90;;;;;;4160966;28;20060;-69
2021/08/19 02:04:24;;;;;;;11.27;6.30;;;18.50;99.90;;;;;;4162345;28;20041;-69
2021/08/19 02:06:25;;;;;;;12.57;6.72;;;18.50;99.90;;;;;;4160929;28;20057;-69
2021/08/19 02:08:26;;;;;;;10.27;6.15;;;18.40;99.90;;;;;;4161086;28;20524;-69
2021/08/19 02:10:26;;;;;;;12.32;7.10;;;18.50;99.90;;;;;;4161502;28;20036;-69
2021/08/19 02:12:27;;;;;;;9.70;6.32;;;18.40;99.90;;;;;;4147799;28;20504;-69
2021/08/19 02:14:27;;;;;;;10.57;6.22;;;18.40;99.90;;;;;;4157943;28;20611;-70
2021/08/19 02:16:28;;;;;;;9.73;6.38;;;18.40;99.90;;;;;;4159476;28;20481;-69
2021/08/19 02:18:28;;;;;;;9.93;5.78;;;18.50;99.90;;;;;;4162914;28;20041;-69
2021/08/19 02:20:29;;;;;;;10.85;5.53;;;18.50;99.90;;;;;;4161795;28;20034;-69
2021/08/19 02:22:30;;;;;;;9.15;5.50;;;18.60;99.90;;;;;;4154248;28;20029;-69
2021/08/19 02:24:31;;;;;;;8.93;5.43;;;18.50;99.90;;;;;;4175682;28;20033;-69
2021/08/19 02:26:31;;;;;;;9.63;5.60;;;18.50;99.90;;;;;;4133587;28;20038;-69
2021/08/19 02:28:32;;;;;;;8.27;5.00;;;18.50;99.90;;;;;;4143591;28;20080;-69
2021/08/19 02:30:32;;;;;;;8.25;5.97;;;18.50;99.90;;;;;;4152821;28;20049;-70
2021/08/19 02:32:33;;;;;;;8.73;5.50;;;18.50;99.90;;;;;;4145239;28;20026;-70
2021/08/19 02:34:33;;;;;;;7.05;4.97;;;18.50;99.90;;;;;;4145312;28;20026;-70
2021/08/19 02:36:34;;;;;;;7.85;5.50;;;18.50;99.90;;;;;;4144508;28;20038;-70
2021/08/19 02:38:34;;;;;;;7.47;4.85;;;18.50;99.90;;;;;;4144606;28;20054;-69
2021/08/19 02:40:36;;;;;;;5.25;4.60;;;18.60;99.90;;;;;;4142773;28;20092;-70
2021/08/19 02:42:37;;;;;;;11.57;5.75;;;18.60;99.90;;;;;;4145191;28;20030;-70
2021/08/19 02:44:37;;;;;;;7.97;5.60;;;18.50;99.90;;;;;;4145191;28;20041;-70
2021/08/19 02:46:38;;;;;;;8.23;5.68;;;18.50;99.90;;;;;;4143104;28;20030;-69
2021/08/19 02:48:41;;;;;;;7.78;5.32;;;18.50;99.90;;;;;;4145303;28;20067;-70
2021/08/19 02:50:42;;;;;;;10.10;5.38;;;18.50;99.90;;;;;;4140857;28;20048;-70
2021/08/19 02:52:43;;;;;;;8.57;4.63;;;18.50;99.90;;;;;;4138814;28;20080;-70
2021/08/19 02:54:44;;;;;;;7.70;4.88;;;18.50;99.90;;;;;;4147425;28;20082;-69
2021/08/19 02:56:45;;;;;;;8.98;5.68;;;18.50;99.90;;;;;;4147520;28;20049;-70
2021/08/19 02:58:45;;;;;;;7.20;5.00;;;18.50;99.90;;;;;;4143268;28;20431;-70
2021/08/19 03:00:46;;;;;;;8.43;5.55;;;18.50;99.90;;;;;;4144604;28;20108;-69
2021/08/19 03:02:46;;;;;;;7.95;5.13;;;18.40;99.90;;;;;;4143163;28;20022;-69
2021/08/19 03:04:47;;;;;;;8.75;5.65;;;18.50;99.90;;;;;;4144488;28;20038;-69
2021/08/19 03:06:47;;;;;;;10.63;5.90;;;18.50;99.90;;;;;;4140171;28;20061;-70
2021/08/19 03:08:48;;;;;;;9.18;6.07;;;18.50;99.90;;;;;;4144963;28;20587;-69
2021/08/19 03:10:49;;;;;;;11.15;6.28;;;18.50;99.90;;;;;;4149535;28;20144;-69
2021/08/19 03:12:49;;;;;;;10.75;6.53;;;18.50;99.90;;;;;;4144071;28;20038;-69
2021/08/19 03:14:50;;;;;;;12.90;7.80;;;18.40;99.90;;;;;;4144756;28;20091;-69
2021/08/19 03:16:50;;;;;;;13.43;7.95;;;18.40;99.90;;;;;;4144425;28;20119;-69
2021/08/19 03:18:51;;;;;;;10.57;6.97;;;18.40;99.90;;;;;;4145671;28;20481;-69
2021/08/19 03:20:52;;;;;;;10.32;7.18;;;18.40;99.90;;;;;;4144725;28;20096;-69
2021/08/19 03:22:52;;;;;;;13.13;7.82;;;18.30;99.90;;;;;;4138484;28;20661;-69
2021/08/19 03:24:54;;;;;;;16.42;8.95;;;18.30;99.90;;;;;;4145131;28;20041;-69
2021/08/19 03:26:55;;;;;;;13.68;7.78;;;18.30;99.90;;;;;;4143797;28;20088;-69
2021/08/19 03:28:55;;;;;;;10.35;7.05;;;18.30;99.90;;;;;;4144209;28;20038;-69
2021/08/19 03:30:57;;;;;;;11.63;7.18;;;18.30;99.90;;;;;;4145522;28;20543;-70
2021/08/19 03:32:59;;;;;;;17.10;7.90;;;18.30;99.90;;;;;;4142442;28;20136;-69
2021/08/19 03:34:59;;;;;;;13.63;7.65;;;18.30;99.90;;;;;;4143856;28;20044;-69
2021/08/19 03:37:00;;;;;;;13.18;7.20;;;18.30;99.90;;;;;;4140683;28;20037;-69
2021/08/19 03:39:01;;;;;;;15.15;7.47;;;18.30;99.90;;;;;;4144183;28;20665;-69
2021/08/19 03:41:01;;;;;;;13.35;7.70;;;18.40;99.90;;;;;;4142175;28;20180;-69
2021/08/19 03:43:02;;;;;;;16.70;8.55;;;18.40;99.90;;;;;;4142274;28;20569;-69
2021/08/19 03:45:05;;;;;;;15.07;9.00;;;18.30;99.90;;;;;;4143998;28;20041;-69
2021/08/19 03:47:06;;;;;;;16.13;9.90;;;18.30;99.90;;;;;;4146873;28;20092;-69
2021/08/19 03:49:06;;;;;;;13.65;7.80;;;18.30;99.90;;;;;;4144588;28;20037;-70
2021/08/19 03:51:09;;;;;;;12.38;7.28;;;18.20;99.90;;;;;;4143960;28;20103;-69
2021/08/19 03:53:11;;;;;;;12.05;7.22;;;18.20;99.90;;;;;;4151453;28;20481;-69
2021/08/19 03:55:12;;;;;;;14.13;8.10;;;18.30;99.90;;;;;;4155704;28;20124;-69
2021/08/19 03:57:12;;;;;;;12.07;7.07;;;18.30;99.90;;;;;;4151273;28;20037;-69
2021/08/19 03:59:14;;;;;;;9.68;6.53;;;18.30;99.90;;;;;;4143917;28;20058;-69
2021/08/19 04:01:14;;;;;;;9.17;6.63;;;18.30;99.90;;;;;;4146702;28;20441;-69
2021/08/19 04:03:15;;;;;;;9.40;6.40;;;18.30;99.90;;;;;;4141879;28;20095;-70
2021/08/19 04:05:16;;;;;;;17.60;7.75;;;18.30;99.90;;;;;;4143076;28;20037;-69
2021/08/19 04:07:17;;;;;;;10.82;7.15;;;18.30;99.90;;;;;;4143459;28;20505;-69
2021/08/19 04:09:17;;;;;;;11.50;6.85;;;18.30;99.90;;;;;;4146045;28;20038;-69
2021/08/19 04:11:18;;;;;;;14.27;7.55;;;18.30;99.90;;;;;;4147596;28;20506;-69
2021/08/19 04:13:18;;;;;;;20.55;10.93;;;18.30;99.90;;;;;;4154185;28;20482;-69
2021/08/19 04:15:19;;;;;;;13.88;8.60;;;18.20;99.90;;;;;;4159211;28;20064;-69
2021/08/19 04:17:20;;;;;;;21.85;11.23;;;18.20;99.90;;;;;;4156227;28;20042;-69
2021/08/19 04:19:20;;;;;;;16.23;9.20;;;18.20;99.90;;;;;;4159829;28;20065;-69
2021/08/19 04:21:21;;;;;;;14.23;9.15;;;18.20;99.90;;;;;;4158896;28;20679;-69
2021/08/19 04:23:21;;;;;;;13.55;8.77;;;18.20;99.90;;;;;;4158815;28;20508;-69
2021/08/19 04:25:22;;;;;;;13.48;8.48;;;18.20;99.90;;;;;;4158620;28;20037;-69
2021/08/19 04:27:23;;;;;;;12.23;8.27;;;18.20;99.90;;;;;;4158454;28;20071;-69
2021/08/19 04:29:23;;;;;;;11.77;8.05;;;18.20;99.90;;;;;;4139443;28;20113;-69
2021/08/19 04:31:24;;;;;;;12.40;7.35;;;18.20;99.90;;;;;;4142195;28;20041;-69
2021/08/19 04:33:28;;;;;;;15.77;8.30;;;18.20;99.90;;;;;;4143394;28;20136;-69
2021/08/19 04:35:31;;;;;;;12.88;8.05;;;18.20;99.90;;;;;;4143312;28;20037;-69
2021/08/19 04:37:32;;;;;;;13.07;8.65;;;18.20;99.90;;;;;;4143623;28;20569;-69
2021/08/19 04:39:32;;;;;;;12.85;8.20;;;18.20;99.90;;;;;;4142472;28;20124;-69
2021/08/19 04:41:33;;;;;;;11.30;7.90;;;18.10;99.90;;;;;;4142230;28;20038;-69
2021/08/19 04:43:34;;;;;;;11.25;7.35;;;18.10;99.90;;;;;;4150714;28;20041;-69
2021/08/19 04:45:34;;;;;;;11.15;6.95;;;18.20;99.90;;;;;;4152621;28;20068;-69
2021/08/19 04:47:35;;;;;;;12.88;8.32;;;18.20;99.90;;;;;;4159126;28;20087;-69
2021/08/19 04:49:36;;;;;;;11.27;8.05;;;18.10;99.90;;;;;;4143440;28;20038;-70
2021/08/19 04:51:37;;;;;;;12.30;7.90;;;18.10;99.90;;;;;;4145205;28;20038;-70
2021/08/19 04:53:37;;;;;;;13.35;8.07;;;18.20;99.90;;;;;;4152241;28;20032;-70
2021/08/19 04:55:38;;;;;;;9.88;7.00;;;18.20;99.90;;;;;;4150450;28;20033;-70
2021/08/19 04:57:38;;;;;;;11.55;8.05;;;18.10;99.90;;;;;;4156331;28;20037;-70
2021/08/19 04:59:39;;;;;;;12.38;8.27;;;18.20;99.90;;;;;;4148370;28;20061;-70
2021/08/19 05:01:40;;;;;;;11.40;7.95;;;18.20;99.90;;;;;;4146305;28;20042;-70
2021/08/19 05:03:40;;;;;;;11.30;7.70;;;18.10;99.90;;;;;;4149223;28;20133;-70
2021/08/19 05:05:41;;;;;;;13.02;7.80;;;18.20;99.90;;;;;;4143749;28;20105;-70
2021/08/19 05:07:41;;;;;;;12.13;8.23;;;18.20;99.90;;;;;;4145431;28;20049;-70
2021/08/19 05:09:42;;;;;;;11.85;8.93;;;18.20;99.90;;;;;;4146782;28;20037;-70
2021/08/19 05:11:43;;;;;;;11.45;8.23;;;18.20;99.90;;;;;;4145408;28;20029;-70
2021/08/19 05:13:44;;;;;;;11.77;7.70;;;18.20;99.90;;;;;;4144357;28;20022;-70
2021/08/19 05:15:44;;;;;;;13.95;9.13;;;18.20;99.90;;;;;;4152224;28;20477;-70
2021/08/19 05:17:45;;;;;;;14.77;9.15;;;18.20;99.90;;;;;;4161976;28;20129;-70
2021/08/19 05:19:46;;;;;;;13.73;8.55;;;18.20;99.90;;;;;;4161472;28;20112;-70
2021/08/19 05:21:46;;;;;;;18.55;9.15;;;18.20;99.90;;;;;;4159699;28;20076;-70
2021/08/19 05:23:47;;;;;;;13.50;9.05;;;18.20;99.90;;;;;;4137092;28;20088;-70
2021/08/19 05:25:47;;;;;;;15.82;9.77;;;18.10;99.90;;;;;;4165862;28;20029;-70
2021/08/19 05:27:48;;;;;;;13.20;8.00;;;18.20;99.90;;;;;;4160370;28;20099;-70
2021/08/19 05:29:48;;;;;;;13.93;8.77;;;18.20;99.90;;;;;;4159778;28;20065;-70
2021/08/19 05:31:49;;;;;;;11.10;7.55;;;18.20;99.90;;;;;;4160918;28;20041;-70
2021/08/19 05:33:50;;;;;;;13.55;8.43;;;18.20;99.90;;;;;;4164768;28;20033;-70
2021/08/19 05:35:51;;;;;;;12.80;7.95;;;18.30;99.90;;;;;;4174799;28;20481;-69
2021/08/19 05:37:52;;;;;;;14.98;8.70;;;18.20;99.90;;;;;;4155876;28;20038;-69
2021/08/19 05:39:52;;;;;;;11.70;7.38;;;18.20;99.90;;;;;;4161111;28;20055;-69
2021/08/19 05:41:53;;;;;;;12.95;8.55;;;18.30;99.90;;;;;;4158790;28;20125;-70
2021/08/19 05:43:54;;;;;;;15.38;9.43;;;18.20;99.90;;;;;;4145226;28;20037;-70
2021/08/19 05:45:54;;;;;;;11.27;7.45;;;18.20;99.90;;;;;;4163088;28;20049;-69
2021/08/19 05:47:55;;;;;;;14.15;8.88;;;18.20;99.90;;;;;;4174661;28;20033;-70
2021/08/19 05:49:56;;;;;;;12.98;7.50;;;18.20;99.90;;;;;;4154290;28;20021;-70
2021/08/19 05:51:56;;;;;;;15.07;7.93;;;18.20;99.90;;;;;;4158758;28;20041;-70
2021/08/19 05:53:57;;;;;;;14.32;9.32;;;18.30;99.90;;;;;;4155835;28;20121;-69
2021/08/19 05:55:57;;;;;;;12.48;9.15;;;18.20;99.90;;;;;;4169354;28;20060;-70
2021/08/19 05:57:59;;;;;;;14.18;8.35;;;18.30;99.90;;;;;;4159039;28;20047;-70
2021/08/19 06:00:00;;;;;;;11.60;8.20;;;18.20;99.90;;;;;;4166567;28;20041;-70
2021/08/19 06:02:00;;;;;;;14.05;8.75;;;18.20;99.90;;;;;;4153494;28;20065;-70
2021/08/19 06:04:01;;;;;;;13.98;8.80;;;18.20;99.90;;;;;;4161046;28;20057;-70
2021/08/19 06:06:02;;;;;;;13.15;8.30;;;18.30;99.90;;;;;;4162222;28;20598;-70
2021/08/19 06:08:02;;;;;;;11.60;8.10;;;18.30;99.90;;;;;;4174705;28;20025;-70
2021/08/19 06:10:04;;;;;;;13.55;9.88;;;18.30;99.90;;;;;;4177371;28;20029;-70
2021/08/19 06:12:06;;;;;;;14.23;9.50;;;18.30;99.90;;;;;;4152593;28;20049;-70
2021/08/19 06:14:06;;;;;;;12.27;8.85;;;18.20;99.90;;;;;;4159157;28;20069;-69
2021/08/19 06:16:07;;;;;;;20.02;10.15;;;18.20;99.90;;;;;;4148162;28;20427;-69
2021/08/19 06:18:08;;;;;;;12.75;8.40;;;18.20;99.90;;;;;;4152087;28;20029;-69
2021/08/19 06:20:09;;;;;;;13.40;8.73;;;18.20;99.90;;;;;;4154489;28;20053;-70
2021/08/19 06:22:10;;;;;;;14.77;8.90;;;18.20;99.90;;;;;;4159899;28;20124;-70
2021/08/19 06:24:10;;;;;;;16.25;9.52;;;18.20;99.90;;;;;;4165416;28;20515;-70
2021/08/19 06:26:11;;;;;;;13.82;9.13;;;18.20;99.90;;;;;;4175675;28;20067;-70
2021/08/19 06:28:12;;;;;;;13.57;8.93;;;18.20;99.90;;;;;;4158799;28;20030;-69
2021/08/19 06:30:14;;;;;;;12.40;8.85;;;18.20;99.90;;;;;;4153139;28;20033;-70
2021/08/19 06:32:14;;;;;;;15.10;9.20;;;18.20;99.90;;;;;;4141156;28;20022;-70
2021/08/19 06:34:15;;;;;;;14.57;9.48;;;18.20;99.90;;;;;;4141634;28;20272;-70
2021/08/19 06:36:15;;;;;;;12.40;8.45;;;18.20;99.90;;;;;;4143958;28;20066;-70
2021/08/19 06:38:17;;;;;;;16.52;10.30;;;18.20;99.90;;;;;;4143478;28;20022;-70
2021/08/19 06:40:18;;;;;;;18.40;10.43;;;18.20;99.90;;;;;;4156917;28;20047;-70
2021/08/19 06:42:18;;;;;;;14.27;9.15;;;18.20;99.90;;;;;;4175874;28;20037;-69
2021/08/19 06:44:19;;;;;;;11.60;8.32;;;18.20;99.90;;;;;;4165080;28;20034;-70
2021/08/19 06:46:20;;;;;;;13.63;8.98;;;18.20;99.90;;;;;;4154885;28;20037;-70
2021/08/19 06:48:20;;;;;;;12.10;9.00;;;18.30;99.90;;;;;;4157258;28;20068;-70
2021/08/19 06:50:21;;;;;;;14.73;8.07;;;18.30;99.90;;;;;;4159863;28;20442;-69
2021/08/19 06:52:22;;;;;;;11.70;8.60;;;18.30;99.90;;;;;;4173659;28;20494;-69
2021/08/19 06:54:22;;;;;;;13.45;9.13;;;18.30;99.90;;;;;;4160623;28;20047;-70
2021/08/19 06:56:23;;;;;;;13.60;8.45;;;18.30;99.90;;;;;;4157876;28;20053;-70
2021/08/19 06:58:24;;;;;;;11.48;7.95;;;18.30;99.90;;;;;;4171105;28;20043;-70
2021/08/19 07:00:25;;;;;;;12.75;8.50;;;18.40;99.90;;;;;;4151452;28;20383;-70
2021/08/19 07:02:25;;;;;;;16.10;9.52;;;18.40;99.90;;;;;;4157165;28;20091;-70
2021/08/19 07:04:26;;;;;;;12.57;8.40;;;18.40;99.90;;;;;;4158687;28;20410;-70
2021/08/19 07:06:26;;;;;;;12.00;8.38;;;18.40;99.90;;;;;;4149135;28;20049;-70
2021/08/19 07:08:27;;;;;;;11.77;8.73;;;18.30;99.90;;;;;;4138777;28;20038;-70
2021/08/19 07:10:28;;;;;;;16.33;9.25;;;18.40;99.90;;;;;;4141621;28;20030;-70
2021/08/19 07:12:28;;;;;;;13.45;9.40;;;18.40;99.90;;;;;;4147834;28;20068;-69
2021/08/19 07:14:29;;;;;;;11.02;7.40;;;18.40;99.90;;;;;;4142040;28;20034;-69
2021/08/19 07:16:30;;;;;;;20.13;10.55;;;18.40;99.90;;;;;;4137093;28;20044;-69
2021/08/19 07:18:31;;;;;;;16.85;9.35;;;18.40;99.90;;;;;;4120905;28;20041;-69
2021/08/19 07:20:31;;;;;;;18.67;9.85;;;18.30;99.90;;;;;;4122487;28;20418;-69
2021/08/19 07:22:32;;;;;;;13.80;8.48;;;18.30;99.90;;;;;;4151510;28;20033;-69
2021/08/19 07:24:34;;;;;;;14.82;8.77;;;18.40;99.90;;;;;;4157505;28;20053;-69
2021/08/19 07:26:34;;;;;;;18.70;10.10;;;18.40;99.90;;;;;;4152125;28;20025;-70
2021/08/19 07:28:35;;;;;;;15.27;9.73;;;18.40;99.90;;;;;;4150813;28;20048;-70
2021/08/19 07:30:35;;;;;;;13.90;8.68;;;18.30;99.90;;;;;;4142170;28;20114;-69
2021/08/19 07:32:36;;;;;;;14.88;9.48;;;18.30;99.90;;;;;;4143754;28;20083;-68
2021/08/19 07:34:37;;;;;;;16.05;9.32;;;18.40;99.90;;;;;;4153683;28;20025;-68
2021/08/19 07:36:37;;;;;;;13.10;9.25;;;18.40;99.90;;;;;;4165544;28;20083;-70
2021/08/19 07:38:38;;;;;;;18.80;10.50;;;18.40;99.90;;;;;;4166665;28;20025;-70
2021/08/19 07:40:38;;;;;;;13.32;8.68;;;18.30;99.90;;;;;;4173389;28;20095;-69
2021/08/19 07:42:39;;;;;;;15.38;9.65;;;18.30;99.90;;;;;;4165055;28;20036;-69
2021/08/19 07:44:40;;;;;;;13.82;9.32;;;18.30;99.90;;;;;;4159004;28;20056;-69
2021/08/19 07:46:41;;;;;;;16.13;9.02;;;18.30;99.90;;;;;;4157528;28;20034;-69
2021/08/19 07:48:42;;;;;;;18.30;10.52;;;18.30;99.90;;;;;;4157849;28;20025;-69
2021/08/19 07:50:43;;;;;;;22.17;10.73;;;18.30;99.90;;;;;;4140585;28;20409;-69
2021/08/19 07:52:44;;;;;;;12.68;8.95;;;18.30;99.90;;;;;;4158448;28;20058;-69
2021/08/19 07:54:45;;;;;;;15.40;9.82;;;18.30;99.90;;;;;;4163301;28;20041;-69
2021/08/19 07:56:45;;;;;;;16.38;9.32;;;18.30;99.90;;;;;;4175367;28;20112;-69
2021/08/19 07:58:46;;;;;;;17.15;10.10;;;18.30;99.90;;;;;;4157491;28;20034;-69
2021/08/19 08:00:47;;;;;;;13.85;9.48;;;18.30;99.90;;;;;;4158963;28;20025;-69
2021/08/19 08:02:48;;;;;;;16.85;10.05;;;18.30;99.90;;;;;;4158755;28;20026;-69
2021/08/19 08:04:48;;;;;;;17.70;10.63;;;18.30;99.90;;;;;;4173596;28;20461;-69
2021/08/19 08:06:49;;;;;;;17.92;9.55;;;18.30;99.90;;;;;;4174241;28;20087;-69
2021/08/19 08:08:51;;;;;;;17.20;10.00;;;18.30;99.90;;;;;;4160001;28;20480;-69
2021/08/19 08:10:52;;;;;;;17.27;10.03;;;18.30;99.90;;;;;;4159392;28;20033;-69
2021/08/19 08:12:52;;;;;;;16.23;9.70;;;18.30;99.90;;;;;;4156400;28;20037;-69
2021/08/19 08:14:53;;;;;;;16.50;9.88;;;18.30;99.90;;;;;;4135867;28;20493;-69
2021/08/19 08:16:53;;;;;;;16.73;10.15;;;18.30;99.90;;;;;;4137681;28;20052;-69
2021/08/19 08:18:55;;;;;;;16.63;10.18;;;18.30;99.90;;;;;;4152414;28;20044;-69
2021/08/19 08:20:57;;;;;;;16.73;10.90;;;18.30;99.90;;;;;;4152493;28;20064;-69
2021/08/19 08:22:58;;;;;;;15.27;10.88;;;18.30;99.90;;;;;;4149919;28;20053;-69
2021/08/19 08:24:59;;;;;;;14.18;10.02;;;18.30;99.90;;;;;;4146135;28;20591;-69
2021/08/19 08:26:59;;;;;;;14.63;10.02;;;18.30;99.90;;;;;;4158089;28;20038;-69
2021/08/19 08:29:00;;;;;;;12.90;9.57;;;18.40;99.90;;;;;;4161600;28;20032;-69
2021/08/19 08:31:03;;;;;;;17.25;10.50;;;18.40;99.90;;;;;;4156501;28;20033;-69
2021/08/19 08:33:04;;;;;;;16.05;10.75;;;18.40;99.90;;;;;;4154494;28;20037;-69
2021/08/19 08:35:05;;;;;;;13.88;9.60;;;18.40;99.90;;;;;;4157740;28;20025;-69
2021/08/19 08:37:06;;;;;;;16.60;10.15;;;18.30;99.90;;;;;;4153653;28;20395;-69
2021/08/19 08:39:07;;;;;;;16.08;11.25;;;18.30;99.90;;;;;;4152123;28;20034;-69
2021/08/19 08:41:07;;;;;;;16.85;10.82;;;18.30;99.90;;;;;;4157802;28;20516;-69
2021/08/19 08:43:09;;;;;;;14.85;11.00;;;18.30;99.90;;;;;;4158363;28;20025;-69
2021/08/19 08:45:10;;;;;;;15.85;10.57;;;18.40;99.90;;;;;;4159157;28;20399;-69
2021/08/19 08:47:13;;;;;;;17.60;10.27;;;18.40;99.90;;;;;;4161846;28;20351;-69
2021/08/19 08:49:14;;;;;;;15.70;10.95;;;18.40;99.90;;;;;;4153016;28;20656;-69
2021/08/19 08:51:15;;;;;;;18.70;11.23;;;18.40;99.90;;;;;;4156800;28;20038;-69
2021/08/19 08:53:16;;;;;;;15.70;10.18;;;18.40;99.90;;;;;;4168149;28;20353;-69
2021/08/19 08:55:16;;;;;;;17.00;10.48;;;18.40;99.90;;;;;;4168566;28;20470;-69
2021/08/19 08:57:17;;;;;;;15.60;10.95;;;18.40;99.90;;;;;;4158389;28;20037;-69
2021/08/19 08:59:18;;;;;;;17.42;10.55;;;18.40;99.90;;;;;;4171130;28;20551;-69
2021/08/19 09:01:19;;;;;;;16.10;10.77;;;18.40;99.90;;;;;;4150922;28;20506;-69
2021/08/19 09:03:21;;;;;;;16.63;10.18;;;18.40;99.90;;;;;;4159886;28;20041;-69
2021/08/19 09:05:23;;;;;;;14.55;11.27;;;18.40;99.90;;;;;;4177751;28;20037;-69
2021/08/19 09:07:31;;;;;;;15.57;9.70;;;18.40;99.90;;;;;;4165526;28;20030;-70
2021/08/19 09:09:32;;;;;;;15.88;10.88;;;18.40;99.90;;;;;;4158833;28;20045;-69
2021/08/19 09:11:40;;;;;;;17.25;11.13;;;18.40;99.90;;;;;;4156867;28;20541;-69
2021/08/19 09:13:41;;;;;;;16.88;11.52;;;18.40;99.90;;;;;;4159530;28;20030;-69
2021/08/19 09:15:46;;;;;;;22.05;13.70;;;18.40;99.90;;;;;;4143498;28;20048;-69
2021/08/19 09:17:55;;;;;;;17.45;11.90;;;18.40;99.90;;;;;;4159991;28;20398;-69
2021/08/19 09:20:06;;;;;;;17.17;12.05;;;18.40;99.90;;;;;;4159650;28;20041;-69
2021/08/19 09:22:09;;;;;;;22.45;11.13;;;18.40;99.90;;;;;;4137499;28;20095;-69
2021/08/19 09:24:16;;;;;;;21.15;12.85;;;18.40;99.90;;;;;;4185788;28;20536;-69
2021/08/19 09:26:27;;;;;;;16.10;12.40;;;18.40;99.90;;;;;;4154967;28;20029;-69
2021/08/19 09:28:29;;;;;;;23.85;14.55;;;18.40;99.90;;;;;;4156984;28;20034;-69
2021/08/19 09:30:30;;;;;;;18.73;13.77;;;18.40;99.90;;;;;;4143097;28;20040;-69
2021/08/19 09:32:31;;;;;;;18.23;12.63;;;18.40;99.90;;;;;;4143446;28;20057;-69
2021/08/19 09:34:32;;;;;;;15.75;12.20;;;18.40;99.90;;;;;;4143358;28;20707;-69
2021/08/19 09:36:35;;;;;;;13.90;10.27;;;18.50;99.90;;;;;;4144093;28;20069;-69
2021/08/19 09:38:38;;;;;;;20.30;12.98;;;18.50;99.90;;;;;;4140401;28;20041;-70
2021/08/19 09:40:39;;;;;;;18.55;12.38;;;18.50;99.90;;;;;;4161490;28;20045;-69
2021/08/19 09:42:40;;;;;;;22.48;15.45;;;18.50;99.90;;;;;;4152014;28;20033;-69
2021/08/19 09:44:46;;;;;;;18.10;13.40;;;18.50;99.90;;;;;;4150419;28;20091;-69
2021/08/19 09:46:47;;;;;;;17.70;13.18;;;18.50;99.90;;;;;;4150358;28;20100;-69
2021/08/19 09:48:48;;;;;;;22.00;15.25;;;18.50;99.90;;;;;;4142323;28;20033;-69
2021/08/19 09:50:48;;;;;;;19.33;13.43;;;18.50;99.90;;;;;;4144673;28;20109;-69
2021/08/19 09:52:50;;;;;;;19.55;13.60;;;18.50;99.90;;;;;;4162058;28;20537;-69
2021/08/19 09:54:51;;;;;;;18.52;13.30;;;18.50;99.90;;;;;;4176780;28;20105;-69
2021/08/19 09:56:52;;;;;;;24.20;15.85;;;18.60;99.90;;;;;;4158524;28;20030;-69
2021/08/19 09:58:52;;;;;;;24.02;15.23;;;18.60;99.90;;;;;;4169286;28;20045;-70
2021/08/19 10:00:53;;;;;;;19.00;13.90;;;18.60;99.90;;;;;;4141240;28;20035;-70
2021/08/19 10:02:54;;;;;;;22.95;14.52;;;18.50;99.90;;;;;;4153281;28;20582;-69
2021/08/19 10:04:55;;;;;;;18.75;12.93;;;18.60;99.90;;;;;;4175812;28;20544;-69
2021/08/19 10:06:57;;;;;;;19.08;13.40;;;18.60;99.90;;;;;;4175890;28;20064;-69
2021/08/19 10:08:57;;;;;;;18.27;13.23;;;18.60;99.90;;;;;;4176259;28;20103;-69
2021/08/19 10:11:00;;;;;;;17.75;12.15;;;18.70;99.90;;;;;;4168806;28;20048;-69
2021/08/19 10:13:02;;;;;;;16.90;13.18;;;18.70;99.90;;;;;;4149566;28;20041;-69
2021/08/19 10:15:03;;;;;;;16.85;12.98;;;18.80;99.90;;;;;;4136853;28;20030;-69
2021/08/19 10:17:09;;;;;;;14.43;10.68;;;18.80;99.90;;;;;;4144589;28;20030;-69
2021/08/19 10:19:22;;;;;;;17.08;11.85;;;18.80;99.90;;;;;;4144041;28;20109;-69
2021/08/19 10:21:23;;;;;;;11.80;9.50;;;18.80;99.90;;;;;;4151109;28;20082;-69
2021/08/19 10:23:25;;;;;;;15.05;10.85;;;18.90;99.90;;;;;;4144651;28;20152;-69